createdAt,value
2022-08-28T00:00:13.021Z,42.47
2022-08-28T00:02:41.042Z,42.22
2022-08-28T00:05:10.883Z,42.65
2022-08-28T00:07:42.295Z,42.91
2022-08-28T00:10:12.991Z,42.44
2022-08-28T00:12:40.482Z,42.72
2022-08-28T00:15:11.949Z,42.64
2022-08-28T00:17:41.101Z,42.72
2022-08-28T00:20:11.309Z,42.46
2022-08-28T00:22:41.336Z,42.20
2022-08-28T00:25:10.454Z,42.41
2022-08-28T00:27:38.313Z,42.20
2022-08-28T00:30:06.494Z,42.47
2022-08-28T00:32:33.930Z,42.54
2022-08-28T00:35:01.739Z,43.22
2022-08-28T00:37:29.406Z,42.73
2022-08-28T00:39:58.324Z,42.24
2022-08-28T00:42:25.806Z,42.70
2022-08-28T00:44:53.259Z,42.91
2022-08-28T00:47:20.754Z,42.23
2022-08-28T00:49:53.191Z,42.91
2022-08-28T00:52:22.803Z,42.17
2022-08-28T00:54:58.547Z,42.27
2022-08-28T00:57:34.326Z,42.79
2022-08-28T01:00:02.424Z,41.98
2022-08-28T01:02:30.022Z,41.89
2022-08-28T01:04:57.561Z,43.11
2022-08-28T01:07:25.264Z,43.91
2022-08-28T01:09:54.903Z,43.93
2022-08-28T01:12:23.155Z,44.67
2022-08-28T01:14:55.115Z,44.28
2022-08-28T01:17:24.986Z,44.66
2022-08-28T01:19:55.309Z,44.61
2022-08-28T01:22:29.234Z,45.15
2022-08-28T01:25:02.311Z,45.01
2022-08-28T01:27:29.837Z,44.61
2022-08-28T01:29:57.381Z,44.36
2022-08-28T01:32:31.016Z,45.20
2022-08-28T01:34:58.622Z,44.93
2022-08-28T01:37:26.123Z,44.55
2022-08-28T01:39:53.600Z,44.70
2022-08-28T01:42:22.476Z,43.89
2022-08-28T01:44:49.904Z,43.99
2022-08-28T01:47:17.343Z,44.63
2022-08-28T01:49:44.769Z,43.54
2022-08-28T01:52:12.205Z,43.45
2022-08-28T01:54:39.725Z,43.72
2022-08-28T01:57:08.322Z,44.12
2022-08-28T01:59:37.181Z,44.79
2022-08-28T02:02:05.425Z,44.21
2022-08-28T02:04:32.985Z,44.81
2022-08-28T02:07:00.455Z,44.60
2022-08-28T02:09:27.953Z,44.35
2022-08-28T02:11:55.348Z,44.25
2022-08-28T02:14:22.782Z,44.89
2022-08-28T02:16:51.762Z,45.06
2022-08-28T02:19:19.457Z,44.25
2022-08-28T02:21:47.754Z,44.91
2022-08-28T02:24:15.183Z,45.52
2022-08-28T02:26:42.813Z,45.83
2022-08-28T02:29:10.235Z,45.64
2022-08-28T02:31:37.762Z,45.57
2022-08-28T02:34:07.199Z,45.97
2022-08-28T02:36:34.626Z,46.13
2022-08-28T02:39:02.055Z,47.22
2022-08-28T02:41:29.458Z,46.62
2022-08-28T02:43:56.894Z,46.88
2022-08-28T02:46:24.352Z,46.23
2022-08-28T02:48:51.803Z,45.98
2022-08-28T02:51:20.630Z,45.73
2022-08-28T02:53:48.403Z,46.50
2022-08-28T02:56:15.797Z,47.01
2022-08-28T02:58:43.424Z,46.17
2022-08-28T03:01:12.903Z,46.21
2022-08-28T03:03:41.395Z,46.55
2022-08-28T03:06:10.328Z,46.66
2022-08-28T03:08:39.605Z,47.45
2022-08-28T03:11:07.076Z,46.64
2022-08-28T03:13:34.529Z,47.61
2022-08-28T03:16:02.351Z,46.21
2022-08-28T03:18:29.789Z,47.69
2022-08-28T03:20:57.311Z,46.91
2022-08-28T03:23:24.776Z,47.90
2022-08-28T03:25:54.483Z,47.98
2022-08-28T03:28:22.022Z,47.62
2022-08-28T03:30:49.499Z,46.81
2022-08-28T03:33:17.031Z,47.63
2022-08-28T03:35:44.429Z,48.30
2022-08-28T03:38:12.210Z,47.24
2022-08-28T03:40:41.572Z,47.56
2022-08-28T03:43:12.696Z,48.44
2022-08-28T03:45:41.138Z,48.87
2022-08-28T03:48:08.746Z,48.89
2022-08-28T03:50:36.787Z,48.74
2022-08-28T03:53:04.361Z,48.56
2022-08-28T03:55:31.831Z,47.81
2022-08-28T03:58:01.625Z,48.76
2022-08-28T04:00:30.493Z,49.67
2022-08-28T04:02:57.956Z,48.44
2022-08-28T04:05:25.381Z,49.27
2022-08-28T04:07:52.804Z,48.51
2022-08-28T04:10:20.257Z,49.13
2022-08-28T04:12:47.806Z,49.20
2022-08-28T04:15:15.253Z,48.99
2022-08-28T04:17:44.218Z,49.02
2022-08-28T04:20:11.921Z,49.44
2022-08-28T04:22:39.620Z,50.34
2022-08-28T04:25:08.330Z,50.06
2022-08-28T04:27:35.971Z,49.89
2022-08-28T04:30:04.390Z,49.81
2022-08-28T04:32:34.779Z,50.60
2022-08-28T04:35:05.375Z,50.49
2022-08-28T04:37:33.322Z,50.39
2022-08-28T04:40:00.797Z,49.89
2022-08-28T04:42:28.249Z,50.80
2022-08-28T04:44:56.446Z,50.95
2022-08-28T04:47:23.913Z,50.53
2022-08-28T04:49:51.354Z,50.88
2022-08-28T04:52:20.264Z,50.95
2022-08-28T04:54:47.675Z,51.12
2022-08-28T04:57:15.114Z,51.60
2022-08-28T04:59:42.522Z,51.77
2022-08-28T05:02:10.037Z,50.26
2022-08-28T05:04:37.517Z,51.19
2022-08-28T05:07:05.085Z,51.11
2022-08-28T05:09:34.375Z,51.79
2022-08-28T05:12:03.261Z,50.74
2022-08-28T05:14:31.432Z,51.51
2022-08-28T05:16:59.177Z,50.23
2022-08-28T05:19:27.690Z,49.93
2022-08-28T05:21:55.607Z,49.51
2022-08-28T05:24:23.017Z,50.09
2022-08-28T05:26:51.960Z,50.81
2022-08-28T05:29:19.356Z,50.08
2022-08-28T05:31:46.911Z,49.47
2022-08-28T05:34:14.590Z,50.48
2022-08-28T05:36:42.216Z,49.41
2022-08-28T05:39:11.581Z,48.79
2022-08-28T05:41:41.173Z,47.82
2022-08-28T05:44:12.423Z,46.20
2022-08-28T05:46:42.369Z,44.90
2022-08-28T05:49:10.546Z,43.91
2022-08-28T05:51:40.590Z,43.84
2022-08-28T05:54:08.824Z,42.57
2022-08-28T05:56:38.655Z,41.75
2022-08-28T05:59:07.406Z,41.41
2022-08-28T06:01:38.555Z,40.39
2022-08-28T06:04:08.689Z,40.39
2022-08-28T06:06:37.632Z,41.14
2022-08-28T06:09:07.679Z,41.37
2022-08-28T06:11:35.536Z,40.99
2022-08-28T06:14:04.009Z,41.15
2022-08-28T06:16:32.610Z,41.53
2022-08-28T06:19:01.518Z,40.10
2022-08-28T06:21:29.237Z,40.43
2022-08-28T06:23:56.768Z,40.46
2022-08-28T06:26:24.236Z,40.88
2022-08-28T06:28:51.981Z,42.21
2022-08-28T06:31:25.086Z,41.58
2022-08-28T06:33:54.321Z,41.25
2022-08-28T06:36:23.361Z,41.92
2022-08-28T06:38:50.808Z,41.86
2022-08-28T06:41:18.445Z,41.37
2022-08-28T06:43:45.848Z,41.89
2022-08-28T06:46:13.426Z,42.23
2022-08-28T06:48:40.869Z,41.33
2022-08-28T06:51:10.108Z,40.56
2022-08-28T06:53:41.320Z,41.64
2022-08-28T06:56:10.814Z,42.86
2022-08-28T06:58:43.478Z,41.86
2022-08-28T07:01:22.024Z,40.67
2022-08-28T07:03:50.461Z,40.11
2022-08-28T07:06:18.476Z,39.94
2022-08-28T07:08:48.140Z,39.51
2022-08-28T07:11:16.225Z,39.47
2022-08-28T07:13:45.298Z,39.38
2022-08-28T07:16:14.540Z,39.15
2022-08-28T07:18:42.261Z,40.30
2022-08-28T07:21:12.467Z,39.81
2022-08-28T07:23:41.880Z,39.01
2022-08-28T07:26:12.767Z,39.23
2022-08-28T07:28:40.851Z,39.99
2022-08-28T07:31:10.254Z,37.11
2022-08-28T07:33:38.350Z,37.93
2022-08-28T07:36:06.993Z,37.09
2022-08-28T07:38:34.833Z,37.33
2022-08-28T07:41:02.269Z,36.43
2022-08-28T07:43:31.121Z,37.37
2022-08-28T07:45:59.735Z,35.85
2022-08-28T07:48:27.492Z,36.13
2022-08-28T07:50:55.110Z,35.38
2022-08-28T07:53:22.750Z,36.00
2022-08-28T07:55:51.194Z,35.58
2022-08-28T07:58:18.927Z,35.90
2022-08-28T08:00:48.215Z,36.10
2022-08-28T08:03:15.660Z,35.88
2022-08-28T08:05:53.242Z,36.50
2022-08-28T08:08:21.068Z,36.30
2022-08-28T08:10:57.519Z,34.91
2022-08-28T08:13:25.043Z,33.73
2022-08-28T08:15:53.963Z,33.41
2022-08-28T08:18:21.432Z,33.91
2022-08-28T08:20:51.620Z,34.40
2022-08-28T08:23:19.041Z,34.55
2022-08-28T08:25:54.988Z,35.59
2022-08-28T08:28:22.901Z,35.55
2022-08-28T08:30:50.479Z,35.47
2022-08-28T08:33:19.352Z,33.90
2022-08-28T08:35:46.775Z,33.52
2022-08-28T08:38:14.336Z,32.57
2022-08-28T08:40:42.030Z,32.23
2022-08-28T08:43:10.156Z,32.11
2022-08-28T08:45:40.394Z,31.66
2022-08-28T08:48:26.708Z,31.74
2022-08-28T08:50:55.378Z,31.98
2022-08-28T08:53:31.068Z,32.16
2022-08-28T08:55:58.625Z,31.29
2022-08-28T08:58:30.213Z,31.74
2022-08-28T09:01:03.756Z,31.00
2022-08-28T09:03:49.569Z,31.05
2022-08-28T09:06:29.545Z,30.85
2022-08-28T09:09:00.686Z,30.83
2022-08-28T09:11:43.889Z,30.93
2022-08-28T09:14:19.585Z,30.27
2022-08-28T09:16:48.331Z,30.78
2022-08-28T09:19:20.192Z,31.48
2022-08-28T09:21:48.696Z,31.95
2022-08-28T09:24:22.288Z,32.97
2022-08-28T09:26:59.247Z,33.07
2022-08-28T09:29:30.288Z,31.22
2022-08-28T09:31:58.427Z,31.64
2022-08-28T09:34:33.382Z,32.30
2022-08-28T09:37:03.329Z,31.25
2022-08-28T09:39:32.071Z,33.87
2022-08-28T09:42:04.351Z,32.24
2022-08-28T09:44:31.876Z,32.01
2022-08-28T09:46:59.453Z,31.88
2022-08-28T09:49:30.382Z,32.30
2022-08-28T09:51:59.004Z,32.21
2022-08-28T09:54:32.975Z,30.67
2022-08-28T09:57:01.381Z,31.38
2022-08-28T09:59:29.926Z,31.73
2022-08-28T10:02:13.437Z,32.86
2022-08-28T10:04:58.029Z,31.27
2022-08-28T10:07:36.717Z,31.11
2022-08-28T10:10:18.021Z,32.46
2022-08-28T10:12:57.613Z,31.97
2022-08-28T10:15:29.560Z,30.68
2022-08-28T10:18:25.544Z,32.05
2022-08-28T10:21:04.068Z,30.19
2022-08-28T10:23:40.233Z,31.30
2022-08-28T10:26:29.198Z,31.78
2022-08-28T10:29:06.805Z,30.69
2022-08-28T10:31:42.975Z,31.73
2022-08-28T10:34:27.410Z,31.69
2022-08-28T10:37:04.919Z,28.55
2022-08-28T10:39:45.843Z,29.48
2022-08-28T10:42:18.500Z,29.90
2022-08-28T10:44:52.623Z,28.80
2022-08-28T10:47:21.702Z,28.76
2022-08-28T10:49:53.435Z,30.49
2022-08-28T10:52:28.457Z,29.33
2022-08-28T10:55:03.193Z,29.96
2022-08-28T10:57:39.546Z,30.04
2022-08-28T11:00:10.573Z,31.08
2022-08-28T11:02:41.158Z,29.66
2022-08-28T11:05:09.398Z,29.06
2022-08-28T11:07:42.386Z,27.70
2022-08-28T11:10:20.185Z,28.68
2022-08-28T11:12:49.615Z,28.31
2022-08-28T11:15:46.360Z,26.82
2022-08-28T11:18:48.766Z,26.80
2022-08-28T11:21:23.878Z,26.80
2022-08-28T11:24:00.230Z,29.66
2022-08-28T11:26:34.163Z,29.55
2022-08-28T11:29:02.144Z,28.40
2022-08-28T11:31:39.111Z,27.24
2022-08-28T11:34:08.454Z,28.71
2022-08-28T11:37:02.306Z,24.61
2022-08-28T11:39:31.748Z,26.34
2022-08-28T11:42:35.454Z,27.61
2022-08-28T11:45:03.627Z,27.39
2022-08-28T11:47:45.455Z,24.05
2022-08-28T11:50:20.606Z,24.92
2022-08-28T11:53:14.746Z,26.60
2022-08-28T11:56:00.445Z,26.14
2022-08-28T11:58:38.213Z,26.25
2022-08-28T12:01:09.250Z,26.16
2022-08-28T12:03:40.430Z,27.50
2022-08-28T12:06:08.014Z,27.82
2022-08-28T12:09:08.993Z,25.45
2022-08-28T12:12:02.047Z,25.52
2022-08-28T12:15:01.477Z,25.02
2022-08-28T12:17:46.368Z,24.98
2022-08-28T12:20:23.263Z,24.88
2022-08-28T12:22:54.193Z,25.24
2022-08-28T12:25:33.948Z,24.74
2022-08-28T12:28:13.012Z,26.19
2022-08-28T12:30:56.541Z,26.75
2022-08-28T12:33:31.739Z,25.86
2022-08-28T12:36:02.778Z,27.04
2022-08-28T12:38:32.537Z,25.13
2022-08-28T12:41:00.102Z,27.09
2022-08-28T12:43:38.514Z,25.70
2022-08-28T12:46:19.304Z,26.22
2022-08-28T12:48:52.000Z,27.60
2022-08-28T12:51:22.026Z,27.82
2022-08-28T12:53:52.482Z,26.06
2022-08-28T12:56:22.402Z,27.27
2022-08-28T12:58:51.567Z,26.83
2022-08-28T13:01:26.873Z,27.16
2022-08-28T13:03:57.401Z,27.16
2022-08-28T13:06:29.000Z,27.26
2022-08-28T13:09:03.407Z,27.26
2022-08-28T13:11:34.736Z,26.89
2022-08-28T13:14:04.970Z,27.57
2022-08-28T13:16:39.657Z,27.30
2022-08-28T13:19:13.100Z,27.62
2022-08-28T13:21:51.645Z,27.92
2022-08-28T13:24:37.658Z,27.52
2022-08-28T13:27:09.131Z,26.86
2022-08-28T13:29:48.577Z,26.72
2022-08-28T13:32:18.773Z,26.54
2022-08-28T13:35:28.182Z,25.90
2022-08-28T13:37:57.208Z,27.57
2022-08-28T13:43:16.165Z,27.92
2022-08-28T13:45:47.072Z,27.04
2022-08-28T13:48:16.596Z,27.36
2022-08-28T13:50:47.216Z,26.85
2022-08-28T13:53:16.143Z,27.65
2022-08-28T13:55:43.574Z,28.83
2022-08-28T13:58:10.977Z,27.72
2022-08-28T14:00:43.484Z,27.85
2022-08-28T14:03:12.892Z,28.25
2022-08-28T14:05:40.426Z,27.69
2022-08-28T14:08:07.838Z,28.22
2022-08-28T14:10:35.340Z,28.30
2022-08-28T14:13:02.762Z,28.45
2022-08-28T14:15:30.197Z,28.73
2022-08-28T14:17:57.632Z,28.89
2022-08-28T14:20:26.514Z,29.29
2022-08-28T14:22:53.916Z,29.16
2022-08-28T14:25:21.357Z,28.78
2022-08-28T14:27:48.787Z,29.96
2022-08-28T14:30:16.838Z,29.53
2022-08-28T14:32:44.254Z,29.11
2022-08-28T14:35:11.858Z,28.95
2022-08-28T14:37:40.701Z,28.96
2022-08-28T14:40:09.285Z,30.11
2022-08-28T14:42:36.794Z,30.06
2022-08-28T14:45:04.971Z,30.65
2022-08-28T14:47:32.377Z,30.67
2022-08-28T14:50:00.472Z,31.28
2022-08-28T14:52:28.038Z,31.06
2022-08-28T14:54:56.942Z,31.82
2022-08-28T14:57:24.382Z,32.00
2022-08-28T14:59:51.807Z,31.49
2022-08-28T15:02:19.249Z,31.73
2022-08-28T15:04:46.666Z,32.07
2022-08-28T15:07:14.102Z,32.23
2022-08-28T15:09:43.079Z,32.35
2022-08-28T15:12:12.081Z,32.58
2022-08-28T15:14:39.654Z,33.05
2022-08-28T15:17:07.979Z,32.62
2022-08-28T15:19:35.524Z,32.88
2022-08-28T15:22:02.972Z,33.19
2022-08-28T15:24:32.040Z,32.97
2022-08-28T15:26:59.715Z,33.20
2022-08-28T15:29:29.547Z,32.46
2022-08-28T15:31:58.084Z,33.23
2022-08-28T15:34:27.260Z,33.22
2022-08-28T15:36:56.443Z,33.45
2022-08-28T15:39:24.057Z,33.47
2022-08-28T15:41:51.730Z,32.98
2022-08-28T15:44:19.183Z,33.60
2022-08-28T15:46:53.861Z,33.64
2022-08-28T15:49:23.888Z,33.51
2022-08-28T15:51:52.335Z,33.53
2022-08-28T15:54:19.869Z,33.70
2022-08-28T15:56:50.739Z,33.81
2022-08-28T15:59:21.703Z,33.60
2022-08-28T16:01:54.246Z,33.58
2022-08-28T16:04:21.744Z,34.31
2022-08-28T16:06:49.162Z,33.64
2022-08-28T16:09:27.927Z,34.33
2022-08-28T16:11:55.343Z,34.31
2022-08-28T16:14:22.765Z,34.19
2022-08-28T16:16:50.951Z,34.02
2022-08-28T16:19:19.932Z,34.28
2022-08-28T16:21:47.395Z,34.36
2022-08-28T16:24:14.819Z,33.86
2022-08-28T16:26:42.251Z,33.83
2022-08-28T16:29:09.714Z,33.70
2022-08-28T16:31:37.171Z,34.22
2022-08-28T16:34:05.230Z,33.70
2022-08-28T16:36:34.229Z,33.92
2022-08-28T16:39:04.071Z,34.60
2022-08-28T16:41:32.186Z,34.17
2022-08-28T16:43:59.975Z,34.81
2022-08-28T16:46:27.931Z,34.60
2022-08-28T16:48:55.653Z,35.22
2022-08-28T16:51:23.536Z,34.83
2022-08-28T16:53:52.510Z,34.63
2022-08-28T16:56:20.258Z,34.65
2022-08-28T16:58:47.676Z,34.24
2022-08-28T17:01:21.246Z,34.48
2022-08-28T17:03:52.486Z,34.35
2022-08-28T17:06:23.149Z,34.71
2022-08-28T17:08:56.485Z,34.76
2022-08-28T17:11:25.395Z,34.86
2022-08-28T17:13:52.927Z,35.39
2022-08-28T17:16:21.701Z,34.95
2022-08-28T17:18:52.406Z,35.39
2022-08-28T17:21:20.786Z,35.80
2022-08-28T17:23:48.792Z,35.93
2022-08-28T17:26:18.347Z,35.58
2022-08-28T17:28:45.403Z,35.51
2022-08-28T17:31:13.763Z,36.33
2022-08-28T17:33:42.953Z,36.00
2022-08-28T17:36:28.927Z,35.66
2022-08-28T17:39:00.862Z,36.31
2022-08-28T17:41:29.863Z,35.91
2022-08-28T17:43:57.323Z,36.12
2022-08-28T17:46:24.889Z,36.32
2022-08-28T17:48:56.104Z,35.91
2022-08-28T17:51:33.150Z,36.14
2022-08-28T17:54:10.827Z,35.91
2022-08-28T17:56:39.755Z,36.28
2022-08-28T17:59:07.238Z,36.43
2022-08-28T18:01:34.783Z,36.07
2022-08-28T18:04:02.449Z,36.64
2022-08-28T18:06:29.968Z,36.31
2022-08-28T18:08:57.401Z,36.84
2022-08-28T18:11:24.893Z,37.42
2022-08-28T18:13:53.770Z,36.71
2022-08-28T18:16:21.286Z,36.58
2022-08-28T18:18:48.902Z,37.42
2022-08-28T18:21:16.322Z,36.47
2022-08-28T18:23:43.774Z,36.58
2022-08-28T18:26:11.309Z,37.06
2022-08-28T18:28:38.822Z,36.51
2022-08-28T18:31:08.129Z,36.99
2022-08-28T18:33:36.206Z,36.76
2022-08-28T18:36:06.350Z,36.81
2022-08-28T18:38:33.957Z,37.05
2022-08-28T18:41:01.899Z,37.28
2022-08-28T18:43:29.403Z,36.92
2022-08-28T18:45:56.941Z,37.21
2022-08-28T18:48:26.085Z,37.54
2022-08-28T18:50:54.595Z,37.78
2022-08-28T18:53:23.667Z,37.08
2022-08-28T18:55:52.807Z,36.73
2022-08-28T18:58:21.632Z,37.51
2022-08-28T19:00:49.392Z,37.54
2022-08-28T19:03:16.821Z,37.19
2022-08-28T19:05:45.686Z,37.64
2022-08-28T19:08:13.508Z,37.00
2022-08-28T19:10:41.558Z,36.92
2022-08-28T19:13:09.025Z,36.96
2022-08-28T19:15:36.949Z,37.31
2022-08-28T19:18:05.288Z,37.17
2022-08-28T19:20:33.740Z,37.21
2022-08-28T19:23:02.656Z,37.79
2022-08-28T19:25:30.295Z,37.74
2022-08-28T19:27:59.125Z,36.99
2022-08-28T19:30:29.401Z,37.90
2022-08-28T19:32:57.116Z,37.06
2022-08-28T19:35:25.167Z,37.35
2022-08-28T19:37:53.022Z,37.83
2022-08-28T19:40:22.870Z,37.88
2022-08-28T19:42:50.722Z,38.08
2022-08-28T19:45:18.663Z,37.38
2022-08-28T19:47:46.169Z,38.16
2022-08-28T19:50:14.637Z,37.69
2022-08-28T19:52:42.902Z,38.10
2022-08-28T19:55:14.626Z,38.50
2022-08-28T19:57:43.891Z,38.06
2022-08-28T20:00:12.445Z,38.28
2022-08-28T20:02:39.927Z,38.42
2022-08-28T20:05:08.948Z,37.83
2022-08-28T20:07:36.397Z,38.88
2022-08-28T20:10:04.741Z,38.92
2022-08-28T20:12:32.197Z,38.09
2022-08-28T20:15:03.508Z,38.42
2022-08-28T20:17:31.347Z,38.18
2022-08-28T20:20:02.418Z,38.56
2022-08-28T20:22:30.665Z,38.37
2022-08-28T20:24:58.105Z,38.50
2022-08-28T20:27:25.544Z,38.62
2022-08-28T20:29:52.999Z,38.70
2022-08-28T20:32:21.912Z,39.47
2022-08-28T20:34:49.329Z,38.73
2022-08-28T20:37:16.754Z,39.29
2022-08-28T20:39:44.160Z,38.86
2022-08-28T20:42:11.852Z,38.87
2022-08-28T20:44:39.238Z,39.65
2022-08-28T20:47:07.095Z,38.87
2022-08-28T20:49:39.449Z,38.89
2022-08-28T20:52:07.039Z,39.22
2022-08-28T20:54:36.994Z,39.59
2022-08-28T20:57:07.559Z,39.33
2022-08-28T20:59:40.185Z,39.41
2022-08-28T21:02:10.439Z,38.81
2022-08-28T21:04:40.902Z,39.69
2022-08-28T21:07:08.562Z,38.90
2022-08-28T21:10:03.829Z,39.21
2022-08-28T21:12:23.873Z,39.43
2022-08-28T21:14:52.327Z,38.97
2022-08-28T21:17:28.950Z,39.29
2022-08-28T21:20:00.893Z,38.90
2022-08-28T21:22:29.587Z,39.72
2022-08-28T21:24:57.077Z,39.14
2022-08-28T21:27:25.089Z,38.02
2022-08-28T21:29:55.529Z,37.57
2022-08-28T21:32:22.991Z,37.30
2022-08-28T21:34:50.546Z,38.08
2022-08-28T21:37:19.650Z,36.92
2022-08-28T21:39:47.105Z,37.18
2022-08-28T21:42:14.549Z,37.30
2022-08-28T21:44:43.320Z,37.67
2022-08-28T21:47:19.333Z,37.25
2022-08-28T21:49:48.124Z,37.72
2022-08-28T21:52:15.567Z,37.10
2022-08-28T21:54:44.427Z,37.08
2022-08-28T21:57:11.937Z,36.79
2022-08-28T21:59:39.493Z,37.57
2022-08-28T22:02:07.448Z,37.63
2022-08-28T22:04:35.414Z,36.80
2022-08-28T22:07:02.914Z,36.91
2022-08-28T22:09:30.363Z,36.63
2022-08-28T22:11:59.240Z,36.82
2022-08-28T22:14:26.753Z,36.69
2022-08-28T22:16:54.318Z,36.84
2022-08-28T22:19:21.821Z,37.13
2022-08-28T22:21:49.240Z,37.48
2022-08-28T22:24:16.802Z,37.10
2022-08-28T22:26:44.473Z,37.22
2022-08-28T22:29:13.549Z,37.27
2022-08-28T22:31:41.410Z,37.33
2022-08-28T22:34:13.822Z,37.78
2022-08-28T22:36:41.339Z,37.20
2022-08-28T22:39:08.756Z,37.16
2022-08-28T22:41:36.262Z,37.17
2022-08-28T22:44:04.603Z,37.40
2022-08-28T22:46:33.477Z,37.11
2022-08-28T22:49:00.918Z,37.72
2022-08-28T22:51:28.400Z,37.05
2022-08-28T22:53:56.169Z,37.79
2022-08-28T22:56:23.580Z,37.18
2022-08-28T22:58:51.056Z,36.99
2022-08-28T23:01:22.548Z,37.77
2022-08-28T23:03:52.198Z,37.44
2022-08-28T23:06:19.835Z,37.96
2022-08-28T23:08:47.815Z,38.03
2022-08-28T23:11:15.262Z,37.33
2022-08-28T23:13:42.724Z,37.83
2022-08-28T23:16:10.404Z,37.86
2022-08-28T23:19:06.445Z,37.77
2022-08-28T23:21:27.022Z,38.03
2022-08-28T23:23:55.125Z,37.53
2022-08-28T23:26:23.416Z,37.65
2022-08-28T23:28:51.349Z,37.42
2022-08-28T23:31:19.234Z,37.44
2022-08-28T23:33:46.885Z,37.15
2022-08-28T23:36:15.452Z,37.90
2022-08-28T23:38:46.269Z,37.74
2022-08-28T23:41:13.697Z,38.28
2022-08-28T23:43:41.149Z,37.57
2022-08-28T23:46:09.889Z,38.12
2022-08-28T23:48:41.036Z,38.12
2022-08-28T23:51:09.270Z,37.64
2022-08-28T23:53:37.376Z,37.34
2022-08-28T23:56:06.551Z,37.90
2022-08-28T23:58:35.788Z,37.69
